Time;durP1;ratioP1;P1;durP2;ratioP2;P2;SDS_P1;SDS_P2;PMS_P1;PMS_P2;Temp;Humidity;BMP_temperature;BMP_pressure;BME280_temperature;BME280_humidity;BME280_pressure;Samples;Min_cycle;Max_cycle;Signal;HPM_P1;HPM_P2
2022/10/08 00:00:53;;;;;;;2.45;0.40;;;12.50;99.90;;;;;;5047086;28;20060;-82
2022/10/08 00:03:20;;;;;;;2.80;0.30;;;12.50;99.90;;;;;;5028382;28;20025;-82
2022/10/08 00:06:07;;;;;;;3.55;0.40;;;12.50;99.90;;;;;;5012629;28;20029;-82
2022/10/08 00:08:35;;;;;;;3.10;0.50;;;12.50;99.90;;;;;;5013343;28;20174;-84
2022/10/08 00:11:05;;;;;;;3.00;0.35;;;12.50;99.90;;;;;;5034190;28;20116;-83
2022/10/08 00:13:39;;;;;;;3.20;0.35;;;12.60;99.90;;;;;;5066225;28;20167;-83
2022/10/08 00:16:20;;;;;;;2.25;0.30;;;12.60;99.90;;;;;;5051290;28;20061;-82
2022/10/08 00:18:48;;;;;;;2.20;0.30;;;12.60;99.90;;;;;;5032864;28;20516;-82
2022/10/08 00:21:17;;;;;;;3.67;0.30;;;12.60;99.90;;;;;;5066281;28;20041;-83
2022/10/08 00:23:45;;;;;;;3.83;0.40;;;12.60;99.90;;;;;;5051790;28;20112;-82
2022/10/08 00:26:11;;;;;;;3.25;0.45;;;12.60;99.90;;;;;;5033052;28;20037;-82
2022/10/08 00:28:40;;;;;;;2.45;0.45;;;12.70;99.90;;;;;;5033282;28;20025;-83
2022/10/08 00:31:14;;;;;;;4.68;0.30;;;12.60;99.90;;;;;;5051406;28;20025;-83
2022/10/08 00:33:40;;;;;;;2.13;0.30;;;12.60;99.90;;;;;;5016495;28;20389;-82
2022/10/08 00:36:11;;;;;;;4.75;0.50;;;12.60;99.90;;;;;;5032939;28;20025;-82
2022/10/08 00:38:37;;;;;;;5.40;0.70;;;12.70;99.90;;;;;;5051330;28;20021;-82
2022/10/08 00:41:05;;;;;;;7.40;0.70;;;12.70;99.90;;;;;;5066238;28;20037;-82
2022/10/08 00:43:36;;;;;;;5.50;0.70;;;12.80;99.90;;;;;;5032826;28;20123;-82
2022/10/08 00:46:02;;;;;;;5.70;0.50;;;12.90;99.90;;;;;;5032774;28;20033;-82
2022/10/08 00:48:28;;;;;;;5.85;0.70;;;12.90;99.90;;;;;;5050463;28;20037;-81
2022/10/08 00:50:54;;;;;;;8.38;0.70;;;13.00;99.90;;;;;;5065517;28;20102;-83
2022/10/08 00:53:20;;;;;;;5.53;0.73;;;13.00;99.90;;;;;;5033108;28;20060;-83
2022/10/08 00:55:46;;;;;;;6.32;0.80;;;13.10;99.90;;;;;;5050710;28;20498;-82
2022/10/08 00:58:16;;;;;;;6.35;0.57;;;13.10;99.90;;;;;;5015862;28;20036;-82
2022/10/08 01:00:43;;;;;;;8.02;0.45;;;13.10;99.90;;;;;;5033008;28;20037;-82
2022/10/08 01:03:09;;;;;;;7.03;0.70;;;13.20;99.90;;;;;;5048382;28;20032;-83
2022/10/08 01:05:49;;;;;;;8.10;0.77;;;13.20;99.90;;;;;;5032455;28;20033;-85
2022/10/08 01:08:38;;;;;;;9.77;0.88;;;13.30;99.90;;;;;;5047150;28;20033;-82
2022/10/08 01:11:48;;;;;;;8.30;0.82;;;13.30;99.90;;;;;;5032450;28;20021;-85
2022/10/08 01:14:31;;;;;;;6.13;0.55;;;13.30;99.90;;;;;;5009599;28;20200;-82
2022/10/08 01:17:05;;;;;;;16.00;0.93;;;13.30;99.90;;;;;;5050190;28;20439;-83
2022/10/08 01:19:40;;;;;;;10.93;0.90;;;13.30;99.90;;;;;;5020330;28;20040;-82
2022/10/08 01:22:09;;;;;;;11.50;1.50;;;13.30;99.90;;;;;;5064100;28;20029;-82
2022/10/08 01:27:52;;;;;;;9.93;0.80;;;13.20;99.90;;;;;;5065639;28;20030;-81
2022/10/08 01:30:18;;;;;;;8.15;1.23;;;13.30;99.90;;;;;;5030557;28;20484;-83
2022/10/08 01:32:52;;;;;;;8.25;1.17;;;13.30;99.90;;;;;;5049233;28;20021;-82
2022/10/08 01:35:28;;;;;;;11.40;1.20;;;13.30;99.90;;;;;;5032187;28;20519;-81
2022/10/08 01:37:55;;;;;;;11.32;1.30;;;13.30;99.90;;;;;;5050753;28;20025;-83
2022/10/08 01:40:28;;;;;;;8.95;1.45;;;13.20;99.90;;;;;;5046899;28;20431;-84
2022/10/08 01:42:57;;;;;;;11.88;1.33;;;13.10;99.90;;;;;;5015468;28;20574;-83
2022/10/08 01:45:30;;;;;;;9.50;1.77;;;12.90;99.90;;;;;;5046720;28;20097;-84
2022/10/08 01:47:57;;;;;;;11.85;1.30;;;12.90;99.90;;;;;;5065087;28;20047;-84
2022/10/08 01:50:29;;;;;;;9.73;1.33;;;12.70;99.90;;;;;;5032127;28;20021;-83
2022/10/08 01:53:00;;;;;;;6.50;0.93;;;12.70;99.90;;;;;;5034978;28;20033;-86
2022/10/08 01:55:39;;;;;;;5.80;0.95;;;12.70;99.90;;;;;;5030605;28;20028;-84
2022/10/08 01:58:27;;;;;;;11.05;1.65;;;12.60;99.90;;;;;;5064879;28;20098;-82
2022/10/08 02:00:55;;;;;;;10.88;1.50;;;12.60;99.90;;;;;;5030253;28;20118;-83
2022/10/08 02:03:21;;;;;;;15.65;2.47;;;12.60;99.90;;;;;;5047468;28;20392;-83
2022/10/08 02:05:50;;;;;;;9.02;1.73;;;12.50;99.90;;;;;;5031931;28;20123;-83
2022/10/08 02:08:17;;;;;;;8.30;1.95;;;12.50;99.90;;;;;;5015218;28;20029;-84
2022/10/08 02:10:43;;;;;;;5.57;1.50;;;12.40;99.90;;;;;;5031949;28;20473;-83
2022/10/08 02:13:09;;;;;;;6.28;1.88;;;12.40;99.90;;;;;;5031288;28;20032;-83
2022/10/08 02:16:01;;;;;;;5.03;1.50;;;12.40;99.90;;;;;;5031502;28;20041;-84
2022/10/08 02:18:40;;;;;;;6.45;2.80;;;12.40;99.90;;;;;;5012977;28;20052;-85
2022/10/08 02:21:18;;;;;;;5.55;1.65;;;12.30;99.90;;;;;;5031167;28;20044;-84
2022/10/08 02:23:57;;;;;;;7.07;2.10;;;12.30;99.90;;;;;;5030480;28;20025;-84
2022/10/08 02:26:36;;;;;;;7.38;1.60;;;12.30;99.90;;;;;;5047282;28;20048;-86
2022/10/08 02:29:15;;;;;;;6.82;1.90;;;12.30;99.90;;;;;;5030836;28;20025;-83
2022/10/08 02:31:54;;;;;;;4.60;1.50;;;12.30;99.90;;;;;;5045907;28;20388;-85
2022/10/08 02:34:26;;;;;;;9.18;2.25;;;12.30;99.90;;;;;;5031093;28;20040;-86
2022/10/08 02:37:07;;;;;;;5.28;1.38;;;12.30;99.90;;;;;;5030961;28;20013;-84
2022/10/08 02:39:36;;;;;;;6.40;0.95;;;12.30;99.90;;;;;;5014935;28;20090;-86
2022/10/08 02:42:07;;;;;;;5.13;1.27;;;12.20;99.90;;;;;;5028930;28;20036;-85
2022/10/08 02:44:48;;;;;;;9.27;2.05;;;12.20;99.90;;;;;;5047745;28;20036;-83
2022/10/08 02:47:18;;;;;;;5.75;1.75;;;12.20;99.90;;;;;;5030939;28;20547;-85
2022/10/08 02:49:56;;;;;;;6.82;1.35;;;12.20;99.90;;;;;;5047323;28;20255;-84
2022/10/08 02:52:26;;;;;;;6.05;1.00;;;12.20;99.90;;;;;;5030900;28;20183;-84
2022/10/08 02:54:55;;;;;;;5.80;1.20;;;12.20;99.90;;;;;;5015192;28;20082;-84
2022/10/08 02:57:41;;;;;;;2.87;0.77;;;12.20;99.90;;;;;;5013404;28;20136;-84
2022/10/08 03:00:09;;;;;;;2.42;0.70;;;12.20;99.90;;;;;;5048520;28;20555;-84
2022/10/08 03:02:51;;;;;;;3.33;0.70;;;12.20;99.90;;;;;;5047695;28;20029;-84
2022/10/08 03:05:18;;;;;;;2.13;0.52;;;12.20;99.90;;;;;;5047461;28;20472;-82
2022/10/08 03:07:45;;;;;;;4.40;0.60;;;12.20;99.90;;;;;;5064513;28;20029;-83
2022/10/08 03:10:11;;;;;;;3.72;0.63;;;12.20;99.90;;;;;;5063357;28;20029;-84
2022/10/08 03:12:38;;;;;;;3.40;0.57;;;12.20;99.90;;;;;;5063951;28;20029;-84
2022/10/08 03:15:04;;;;;;;3.75;1.00;;;12.20;99.90;;;;;;5048798;28;20089;-84
2022/10/08 03:17:37;;;;;;;5.85;1.42;;;12.20;99.90;;;;;;5048261;28;20060;-85
2022/10/08 03:20:05;;;;;;;3.35;0.60;;;12.10;99.90;;;;;;5029097;28;20037;-84
2022/10/08 03:22:32;;;;;;;5.80;0.90;;;12.10;99.90;;;;;;5047093;28;20033;-84
2022/10/08 03:24:57;;;;;;;3.33;1.00;;;12.00;99.90;;;;;;5030849;28;20040;-84
2022/10/08 03:27:23;;;;;;;2.17;0.70;;;12.00;99.90;;;;;;5046743;28;20029;-86
2022/10/08 03:29:50;;;;;;;2.88;0.50;;;12.00;99.90;;;;;;5013433;28;20033;-84
2022/10/08 03:32:16;;;;;;;5.00;0.90;;;11.90;99.90;;;;;;5029038;28;20116;-85
2022/10/08 03:34:42;;;;;;;3.85;1.00;;;11.90;99.90;;;;;;5014355;28;20112;-85
2022/10/08 03:37:07;;;;;;;5.45;0.70;;;11.90;99.90;;;;;;5062041;28;20620;-84
2022/10/08 03:39:33;;;;;;;3.60;0.75;;;11.80;99.90;;;;;;5030166;28;20025;-83
2022/10/08 03:41:58;;;;;;;3.38;0.45;;;11.80;99.90;;;;;;5019362;28;20046;-84
2022/10/08 03:44:24;;;;;;;2.90;0.65;;;11.70;99.90;;;;;;5029209;28;20504;-84
2022/10/08 03:46:50;;;;;;;3.00;0.93;;;11.80;99.90;;;;;;5029060;28;20021;-85
2022/10/08 03:49:15;;;;;;;3.58;1.00;;;11.80;99.90;;;;;;5029511;28;20115;-84
2022/10/08 03:51:41;;;;;;;3.47;0.80;;;11.80;99.90;;;;;;5063753;28;20025;-83
2022/10/08 03:54:07;;;;;;;3.15;0.85;;;11.80;99.90;;;;;;5029714;28;20037;-84
2022/10/08 03:56:33;;;;;;;3.75;1.20;;;11.70;99.90;;;;;;5029646;28;20027;-83
2022/10/08 03:58:59;;;;;;;4.45;1.02;;;11.70;99.90;;;;;;5013779;28;20036;-84
2022/10/08 04:01:27;;;;;;;2.65;0.60;;;11.60;99.90;;;;;;5029727;28;20075;-86
2022/10/08 04:03:53;;;;;;;3.13;0.50;;;11.60;99.90;;;;;;5029548;28;20115;-84
2022/10/08 04:06:19;;;;;;;2.58;0.40;;;11.60;99.90;;;;;;5012951;28;20076;-85
2022/10/08 04:08:45;;;;;;;4.28;1.25;;;11.60;99.90;;;;;;5013732;28;20063;-84
2022/10/08 04:11:13;;;;;;;4.65;1.25;;;11.50;99.90;;;;;;5029358;28;20033;-84
2022/10/08 04:13:40;;;;;;;6.15;1.40;;;11.60;99.90;;;;;;5013277;28;20021;-84
2022/10/08 04:16:10;;;;;;;5.18;1.02;;;11.60;99.90;;;;;;5048044;28;20021;-84
2022/10/08 04:18:35;;;;;;;;;;;11.50;99.90;;;;;;5030323;28;20029;-85
2022/10/08 04:21:04;;;;;;;5.50;1.70;;;11.50;99.90;;;;;;5052848;28;20019;-86
2022/10/08 04:23:32;;;;;;;4.32;1.30;;;11.50;99.90;;;;;;5047856;28;20037;-84
2022/10/08 04:25:58;;;;;;;4.85;1.77;;;11.50;99.90;;;;;;5047507;28;20020;-84
2022/10/08 04:28:24;;;;;;;3.67;1.20;;;11.50;99.90;;;;;;5029268;28;20071;-85
2022/10/08 04:31:00;;;;;;;4.05;1.33;;;11.50;99.90;;;;;;5063204;28;20057;-84
2022/10/08 04:33:27;;;;;;;6.15;1.63;;;11.50;99.90;;;;;;5028937;28;20351;-84
2022/10/08 04:35:54;;;;;;;7.05;2.58;;;11.50;99.90;;;;;;5029719;28;20057;-85
2022/10/08 04:38:20;;;;;;;5.85;2.42;;;11.50;99.90;;;;;;5047017;28;20036;-85
2022/10/08 04:40:46;;;;;;;8.18;2.83;;;11.50;99.90;;;;;;5013450;28;20033;-84
2022/10/08 04:43:12;;;;;;;7.00;2.80;;;11.50;99.90;;;;;;5029271;28;20045;-83
2022/10/08 04:45:42;;;;;;;11.75;3.45;;;11.50;99.90;;;;;;5063273;28;20116;-84
2022/10/08 04:48:08;;;;;;;9.27;3.40;;;11.50;99.90;;;;;;5029484;28;20116;-86
2022/10/08 04:50:34;;;;;;;7.35;2.42;;;11.40;99.90;;;;;;5046210;28;20545;-84
2022/10/08 04:52:59;;;;;;;6.88;3.20;;;11.40;99.90;;;;;;5047990;28;20021;-84
2022/10/08 04:55:25;;;;;;;4.68;2.30;;;11.40;99.90;;;;;;5011831;28;20029;-86
2022/10/08 04:57:51;;;;;;;9.00;3.33;;;11.40;99.90;;;;;;5032401;28;20092;-84
2022/10/08 05:00:16;;;;;;;8.65;3.45;;;11.40;99.90;;;;;;5066035;28;20064;-85
2022/10/08 05:02:42;;;;;;;8.65;3.78;;;11.40;99.90;;;;;;5017105;28;20380;-86
2022/10/08 05:05:08;;;;;;;11.93;4.07;;;11.40;99.90;;;;;;5049456;28;20033;-82
2022/10/08 05:07:33;;;;;;;5.20;2.80;;;11.40;99.90;;;;;;5016336;28;20025;-84
2022/10/08 05:09:59;;;;;;;7.55;2.80;;;11.40;99.90;;;;;;5050895;28;20116;-87
2022/10/08 05:12:24;;;;;;;5.97;2.22;;;11.40;99.90;;;;;;5033005;28;20120;-85
2022/10/08 05:14:50;;;;;;;6.13;1.33;;;11.40;99.90;;;;;;5049665;28;20064;-85
2022/10/08 05:17:16;;;;;;;7.82;2.35;;;11.30;99.90;;;;;;5050578;28;20025;-86
2022/10/08 05:19:41;;;;;;;5.68;1.30;;;11.40;99.90;;;;;;5032653;28;20036;-85
2022/10/08 05:22:07;;;;;;;5.00;1.58;;;11.40;99.90;;;;;;5032946;28;20386;-85
2022/10/08 05:24:32;;;;;;;6.05;1.70;;;11.30;99.90;;;;;;5065746;28;20113;-86
2022/10/08 05:26:58;;;;;;;2.75;0.80;;;11.30;99.90;;;;;;5033166;28;20369;-85
2022/10/08 05:29:24;;;;;;;7.68;2.60;;;11.30;99.90;;;;;;5015526;28;20051;-87
2022/10/08 05:31:50;;;;;;;5.55;2.22;;;11.30;99.90;;;;;;5050778;28;20039;-82
2022/10/08 05:34:15;;;;;;;5.45;1.70;;;11.30;99.90;;;;;;5065188;28;20033;-85
2022/10/08 05:36:41;;;;;;;10.00;3.20;;;11.30;99.90;;;;;;5050877;28;20100;-87
2022/10/08 05:39:07;;;;;;;5.63;1.60;;;11.30;99.90;;;;;;5031421;28;20484;-85
2022/10/08 05:41:35;;;;;;;11.65;2.53;;;11.30;99.90;;;;;;5044829;28;20045;-86
2022/10/08 05:44:02;;;;;;;6.70;2.80;;;11.30;99.90;;;;;;5048623;28;20040;-85
2022/10/08 05:46:29;;;;;;;9.50;2.30;;;11.30;99.90;;;;;;5031311;28;20036;-86
2022/10/08 05:48:57;;;;;;;7.72;3.70;;;11.30;99.90;;;;;;5050107;28;20025;-84
2022/10/08 05:51:23;;;;;;;6.25;3.45;;;11.40;99.90;;;;;;5014454;28;20488;-85
2022/10/08 05:53:50;;;;;;;6.68;3.38;;;11.30;99.90;;;;;;5048973;28;20033;-86
2022/10/08 05:56:19;;;;;;;8.52;2.72;;;11.30;99.90;;;;;;5031329;28;20121;-87
2022/10/08 05:58:45;;;;;;;5.63;1.73;;;11.40;99.90;;;;;;5066024;28;20082;-85
2022/10/08 06:01:19;;;;;;;6.40;2.45;;;11.40;99.90;;;;;;5047485;28;20034;-86
2022/10/08 06:03:53;;;;;;;5.50;2.47;;;11.40;99.90;;;;;;5032295;28;20476;-85
2022/10/08 06:06:20;;;;;;;4.72;2.15;;;11.40;99.90;;;;;;5030432;28;20057;-85
2022/10/08 06:08:46;;;;;;;8.02;3.13;;;11.40;99.90;;;;;;5049221;28;20020;-87
2022/10/08 06:11:12;;;;;;;7.40;3.03;;;11.40;99.90;;;;;;5048592;28;20021;-86
2022/10/08 06:13:41;;;;;;;9.35;4.55;;;11.50;99.90;;;;;;5031427;28;20037;-85
2022/10/08 06:16:09;;;;;;;7.00;3.92;;;11.50;99.90;;;;;;5049582;28;20518;-85
2022/10/08 06:18:37;;;;;;;7.22;4.53;;;11.60;99.90;;;;;;5045399;28;20041;-86
2022/10/08 06:21:05;;;;;;;8.77;4.63;;;11.60;99.90;;;;;;5014605;28;20393;-85
2022/10/08 06:23:32;;;;;;;9.25;5.72;;;11.60;99.90;;;;;;5047597;28;20021;-85
2022/10/08 06:26:06;;;;;;;10.75;5.93;;;11.60;99.90;;;;;;5031406;28;20064;-86
2022/10/08 06:28:32;;;;;;;7.45;4.07;;;11.60;99.90;;;;;;5049170;28;20033;-85
2022/10/08 06:30:59;;;;;;;6.50;4.05;;;11.60;99.90;;;;;;5029468;28;20030;-87
2022/10/08 06:33:25;;;;;;;7.90;5.57;;;11.50;99.90;;;;;;5031142;28;20040;-85
2022/10/08 06:35:50;;;;;;;10.73;6.00;;;11.50;99.90;;;;;;5062565;28;20115;-85
2022/10/08 06:38:16;;;;;;;6.28;3.05;;;11.40;99.90;;;;;;5064334;28;20029;-86
2022/10/08 06:40:42;;;;;;;4.80;1.92;;;11.40;99.90;;;;;;5047164;28;20412;-84
2022/10/08 06:43:18;;;;;;;4.72;2.67;;;11.40;99.90;;;;;;5023003;28;20051;-87
2022/10/08 06:45:45;;;;;;;7.20;3.90;;;11.30;99.90;;;;;;5062943;28;20029;-85
2022/10/08 06:48:12;;;;;;;7.97;3.42;;;11.30;99.90;;;;;;5014368;28;20384;-86
2022/10/08 06:50:38;;;;;;;4.03;2.35;;;11.40;99.90;;;;;;5063557;28;20063;-85
2022/10/08 06:53:05;;;;;;;5.38;3.38;;;11.30;99.90;;;;;;5029538;28;20163;-85
2022/10/08 06:55:33;;;;;;;4.80;2.75;;;11.40;99.90;;;;;;5029947;28;20040;-85
2022/10/08 06:57:59;;;;;;;9.10;5.28;;;11.40;99.90;;;;;;5030857;28;20180;-86
2022/10/08 07:00:25;;;;;;;6.22;2.50;;;11.40;99.90;;;;;;5048572;28;20102;-85
2022/10/08 07:02:51;;;;;;;8.63;3.90;;;11.50;99.90;;;;;;5064484;28;20021;-86
2022/10/08 07:05:17;;;;;;;8.77;4.80;;;11.50;99.90;;;;;;5045898;28;20048;-85
2022/10/08 07:07:43;;;;;;;12.52;5.80;;;11.60;99.90;;;;;;5048239;28;20468;-85
2022/10/08 07:10:08;;;;;;;9.32;4.35;;;11.60;99.90;;;;;;5063264;28;20216;-87
2022/10/08 07:12:34;;;;;;;12.65;7.35;;;11.70;99.90;;;;;;5048301;28;20054;-85
2022/10/08 07:15:00;;;;;;;13.10;6.55;;;11.70;99.90;;;;;;5030719;28;20044;-85
2022/10/08 07:17:28;;;;;;;9.52;6.05;;;11.70;99.90;;;;;;5047438;28;20037;-85
2022/10/08 07:19:56;;;;;;;8.10;5.22;;;11.80;99.90;;;;;;5045685;28;20033;-86
2022/10/08 07:22:23;;;;;;;11.20;5.35;;;11.90;99.90;;;;;;5047840;28;20075;-88
2022/10/08 07:24:50;;;;;;;9.80;6.78;;;11.90;99.90;;;;;;5030810;28;20032;-85
2022/10/08 07:27:16;;;;;;;11.20;6.50;;;11.90;99.90;;;;;;5047144;28;20101;-86
2022/10/08 07:29:44;;;;;;;9.52;5.72;;;12.00;99.90;;;;;;5030256;28;20025;-85
2022/10/08 07:32:10;;;;;;;10.93;6.05;;;12.10;99.90;;;;;;5029779;28;20029;-87
2022/10/08 07:34:35;;;;;;;13.73;7.32;;;12.10;99.90;;;;;;5027998;28;20080;-85
2022/10/08 07:37:01;;;;;;;13.13;5.40;;;12.20;99.90;;;;;;5030359;28;20031;-85
2022/10/08 07:39:27;;;;;;;11.23;5.75;;;12.30;99.90;;;;;;5029579;28;20119;-88
2022/10/08 07:41:53;;;;;;;9.57;5.65;;;12.40;99.90;;;;;;5013085;28;20045;-89
2022/10/08 07:44:19;;;;;;;10.88;5.68;;;12.40;99.90;;;;;;5029599;28;20037;-83
2022/10/08 07:46:47;;;;;;;11.07;4.50;;;12.50;99.90;;;;;;5009936;28;20107;-87
2022/10/08 07:49:14;;;;;;;12.75;5.57;;;12.50;99.90;;;;;;5046523;28;20021;-85
2022/10/08 07:51:40;;;;;;;10.27;4.82;;;12.60;99.90;;;;;;5030179;28;20039;-85
2022/10/08 07:54:07;;;;;;;10.70;4.85;;;12.70;99.90;;;;;;5030225;28;20108;-88
2022/10/08 07:56:35;;;;;;;9.98;4.20;;;12.70;99.90;;;;;;5029231;28;20028;-86
2022/10/08 07:59:01;;;;;;;8.52;3.97;;;12.70;99.90;;;;;;5029378;28;20354;-86
2022/10/08 08:01:28;;;;;;;9.23;3.28;;;12.80;99.90;;;;;;5044681;28;20105;-83
2022/10/08 08:04:03;;;;;;;9.85;2.65;;;12.80;99.90;;;;;;5046600;28;20028;-85
2022/10/08 08:06:31;;;;;;;9.23;2.85;;;12.90;99.90;;;;;;5046657;28;20029;-85
2022/10/08 08:08:59;;;;;;;9.77;2.50;;;13.00;99.90;;;;;;5027877;28;20473;-85
2022/10/08 08:11:25;;;;;;;12.32;2.05;;;13.20;99.90;;;;;;5047057;28;20037;-86
2022/10/08 08:13:51;;;;;;;7.63;1.90;;;13.20;99.90;;;;;;5046056;28;20033;-84
2022/10/08 08:16:20;;;;;;;9.77;1.80;;;13.20;99.90;;;;;;5062468;28;20029;-85
2022/10/08 08:18:56;;;;;;;6.82;1.67;;;13.30;99.90;;;;;;5028294;28;20029;-86
2022/10/08 08:21:27;;;;;;;6.40;1.02;;;13.30;99.90;;;;;;5062789;28;20500;-85
2022/10/08 08:23:55;;;;;;;8.13;1.52;;;13.40;99.90;;;;;;5046342;28;20024;-86
2022/10/08 08:26:33;;;;;;;7.97;1.10;;;13.40;99.90;;;;;;5046006;28;20066;-85
2022/10/08 08:29:19;;;;;;;4.95;1.00;;;13.40;99.90;;;;;;5013729;28;20118;-85
2022/10/08 08:31:49;;;;;;;7.10;1.02;;;13.40;99.90;;;;;;5031748;28;20116;-86
2022/10/08 08:34:16;;;;;;;;;;;13.50;99.90;;;;;;5033182;28;20025;-84
2022/10/08 08:36:44;;;;;;;4.68;0.90;;;13.60;99.90;;;;;;5033518;28;19958;-85
2022/10/08 08:39:24;;;;;;;6.35;0.80;;;13.60;99.90;;;;;;5033305;28;20029;-88
2022/10/08 08:42:05;;;;;;;;;;;13.60;99.90;;;;;;5045658;28;20037;-84
2022/10/08 08:44:41;;;;;;;5.80;0.50;;;13.70;99.90;;;;;;5066332;28;19909;-85
2022/10/08 08:47:36;;;;;;;4.35;0.40;;;13.80;99.90;;;;;;5050942;28;20511;-86
2022/10/08 08:50:43;;;;;;;10.68;0.60;;;13.70;99.90;;;;;;5017234;28;20048;-85
2022/10/08 08:53:09;;;;;;;4.15;0.40;;;13.90;99.90;;;;;;4994384;28;20488;-86
2022/10/08 08:55:44;;;;;;;4.90;0.55;;;13.70;99.90;;;;;;4993113;28;20072;-85
2022/10/08 08:58:42;;;;;;;5.43;0.38;;;14.00;99.90;;;;;;5024709;28;20091;-86
2022/10/08 09:01:07;;;;;;;9.00;0.52;;;13.80;99.90;;;;;;4987690;28;20145;-85
2022/10/08 09:04:10;;;;;;;5.82;0.82;;;14.10;99.90;;;;;;5005587;28;20108;-84
2022/10/08 09:06:38;;;;;;;5.72;0.32;;;14.10;99.90;;;;;;5020879;28;20038;-84
2022/10/08 09:09:10;;;;;;;3.72;0.30;;;14.00;99.90;;;;;;5005970;28;20038;-86
2022/10/08 09:11:38;;;;;;;3.90;0.20;;;14.10;99.90;;;;;;4995493;28;20164;-86
2022/10/08 09:14:25;;;;;;;2.10;0.20;;;14.30;99.90;;;;;;5027087;28;20123;-85
2022/10/08 09:16:52;;;;;;;3.90;0.30;;;14.50;99.90;;;;;;5005580;28;20036;-86
2022/10/08 09:19:17;;;;;;;2.65;0.30;;;14.50;99.90;;;;;;5009678;28;20044;-84
2022/10/08 09:21:44;;;;;;;7.30;0.40;;;14.50;99.90;;;;;;5010718;28;20037;-86
2022/10/08 09:24:10;;;;;;;5.45;0.30;;;14.40;99.90;;;;;;4993650;28;20531;-84
2022/10/08 09:26:58;;;;;;;3.75;0.30;;;14.50;99.90;;;;;;5017240;28;20136;-85
2022/10/08 09:29:33;;;;;;;4.28;0.20;;;14.50;99.90;;;;;;5031315;28;20053;-87
2022/10/08 09:31:58;;;;;;;3.03;0.20;;;14.30;99.90;;;;;;5015715;28;20025;-82
2022/10/08 09:34:25;;;;;;;5.78;0.20;;;14.10;99.90;;;;;;5014108;28;20395;-84
2022/10/08 09:37:00;;;;;;;6.35;0.25;;;14.00;99.90;;;;;;5032748;28;20079;-83
2022/10/08 09:39:32;;;;;;;4.47;0.22;;;14.20;99.90;;;;;;5049846;28;20052;-82
2022/10/08 09:42:07;;;;;;;3.75;0.30;;;14.40;99.90;;;;;;5031257;28;20057;-83
2022/10/08 09:44:57;;;;;;;1.77;0.20;;;14.30;99.90;;;;;;5014648;28;20033;-86
2022/10/08 09:47:25;;;;;;;4.78;0.30;;;13.90;99.90;;;;;;5032380;28;20033;-87
2022/10/08 09:50:30;;;;;;;4.90;0.22;;;14.40;99.90;;;;;;5031786;28;20166;-83
2022/10/08 09:52:58;;;;;;;2.20;0.40;;;14.20;99.90;;;;;;5030511;28;20056;-85
2022/10/08 09:55:34;;;;;;;7.07;0.60;;;14.50;99.90;;;;;;5030379;28;20693;-84
2022/10/08 09:58:02;;;;;;;3.70;0.20;;;14.50;99.90;;;;;;5015261;28;20029;-83
2022/10/08 10:00:34;;;;;;;5.03;0.43;;;14.70;99.90;;;;;;5047409;28;20041;-81
2022/10/08 10:03:01;;;;;;;1.42;0.20;;;14.60;99.90;;;;;;5046999;28;20028;-82
2022/10/08 10:05:32;;;;;;;1.98;0.30;;;14.80;99.90;;;;;;5049498;28;21004;-83
2022/10/08 10:07:58;;;;;;;4.80;0.30;;;15.00;99.90;;;;;;5048921;28;20112;-85
2022/10/08 10:10:33;;;;;;;4.07;0.25;;;15.00;99.90;;;;;;5014458;28;20500;-84
2022/10/08 10:13:09;;;;;;;4.45;0.40;;;14.70;99.90;;;;;;5047324;28;20127;-81
2022/10/08 10:15:43;;;;;;;4.68;0.50;;;14.50;99.90;;;;;;5063641;28;20110;-82
2022/10/08 10:18:21;;;;;;;3.97;0.40;;;14.40;99.90;;;;;;5030274;28;20032;-82
2022/10/08 10:20:54;;;;;;;2.55;0.20;;;14.30;99.90;;;;;;5006173;28;20044;-84
2022/10/08 10:23:35;;;;;;;3.70;0.30;;;14.20;99.90;;;;;;5047365;28;20086;-83
2022/10/08 10:26:26;;;;;;;1.23;0.15;;;14.00;99.90;;;;;;5013198;28;20025;-81
2022/10/08 10:28:53;;;;;;;4.55;0.20;;;14.00;99.90;;;;;;5064041;28;20457;-83
2022/10/08 10:31:31;;;;;;;3.53;0.28;;;14.10;99.90;;;;;;5049879;28;20548;-83
2022/10/08 10:34:14;;;;;;;5.22;0.20;;;14.50;99.90;;;;;;5014586;28;20041;-82
2022/10/08 10:36:53;;;;;;;4.45;0.30;;;14.20;99.90;;;;;;5048338;28;20065;-84
2022/10/08 10:39:27;;;;;;;4.72;0.20;;;14.30;99.90;;;;;;5029598;28;20029;-84
2022/10/08 10:42:17;;;;;;;5.32;0.20;;;14.80;99.90;;;;;;5045909;28;20076;-80
2022/10/08 10:44:49;;;;;;;4.03;0.20;;;15.10;99.90;;;;;;5030299;28;20407;-82
2022/10/08 10:47:20;;;;;;;4.88;0.20;;;14.90;99.90;;;;;;5013645;28;20120;-83
2022/10/08 10:49:45;;;;;;;2.78;0.20;;;15.10;99.90;;;;;;5046894;28;20029;-83
2022/10/08 10:52:47;;;;;;;3.28;0.20;;;14.60;99.90;;;;;;5048070;28;20139;-83
2022/10/08 10:55:23;;;;;;;2.17;0.20;;;15.00;99.90;;;;;;5044318;28;20067;-83
2022/10/08 10:58:13;;;;;;;2.58;0.20;;;14.80;99.90;;;;;;5044612;28;20044;-82
2022/10/08 11:01:17;;;;;;;4.28;0.30;;;14.60;99.90;;;;;;5030530;28;20032;-82
2022/10/08 11:04:02;;;;;;;5.38;0.20;;;14.40;99.90;;;;;;5062077;28;20044;-82
2022/10/08 11:06:30;;;;;;;5.78;0.30;;;14.30;99.90;;;;;;5028656;28;20528;-82
2022/10/08 11:09:07;;;;;;;2.88;0.20;;;14.30;99.90;;;;;;5013583;28;20155;-82
2022/10/08 11:11:41;;;;;;;3.97;0.20;;;14.30;99.90;;;;;;5012838;28;20256;-81
2022/10/08 11:14:25;;;;;;;2.88;0.20;;;14.30;99.90;;;;;;5047735;28;20493;-83
2022/10/08 11:17:19;;;;;;;3.05;0.20;;;14.20;99.90;;;;;;5047180;28;20028;-84
2022/10/08 11:19:56;;;;;;;2.38;0.20;;;14.00;99.90;;;;;;5046206;28;20091;-82
2022/10/08 11:22:49;;;;;;;2.20;0.10;;;14.00;99.90;;;;;;5029137;28;20033;-82
2022/10/08 11:25:20;;;;;;;3.40;0.30;;;13.90;99.90;;;;;;5029725;28;20108;-83
2022/10/08 11:28:06;;;;;;;5.38;0.82;;;13.70;99.90;;;;;;5029390;28;20078;-84
2022/10/08 11:30:52;;;;;;;3.28;0.20;;;13.50;99.90;;;;;;5063233;28;20051;-84
2022/10/08 11:33:19;;;;;;;3.55;0.20;;;13.70;99.90;;;;;;5029229;28;20065;-82
2022/10/08 11:36:19;;;;;;;4.10;0.30;;;13.70;99.90;;;;;;5062870;28;20081;-83
2022/10/08 11:39:01;;;;;;;2.15;0.10;;;13.80;99.90;;;;;;5028995;28;20033;-83
2022/10/08 11:41:54;;;;;;;2.25;0.20;;;14.00;99.90;;;;;;5045594;28;20400;-82
2022/10/08 11:44:20;;;;;;;1.85;0.10;;;14.20;99.90;;;;;;5062408;28;20033;-84
2022/10/08 11:46:47;;;;;;;1.23;0.20;;;14.10;99.90;;;;;;5047540;28;20481;-84
2022/10/08 11:49:13;;;;;;;5.57;0.20;;;14.50;99.90;;;;;;5046224;28;20102;-84
2022/10/08 11:51:39;;;;;;;1.40;0.10;;;14.40;99.90;;;;;;5013314;28;20499;-81
2022/10/08 11:54:30;;;;;;;3.70;0.25;;;14.80;99.90;;;;;;5029479;28;20033;-82
2022/10/08 11:57:19;;;;;;;3.45;0.20;;;14.80;99.90;;;;;;5012004;28;20072;-82
2022/10/08 11:59:58;;;;;;;1.77;0.20;;;14.80;99.90;;;;;;5061705;28;20041;-82
2022/10/08 12:02:37;;;;;;;4.30;0.30;;;15.10;99.90;;;;;;5059638;28;20037;-83
2022/10/08 12:05:21;;;;;;;8.25;0.30;;;15.30;99.90;;;;;;5047941;28;20032;-83
2022/10/08 12:07:52;;;;;;;3.15;0.40;;;15.30;99.90;;;;;;5053036;28;20061;-83
2022/10/08 12:10:17;;;;;;;2.45;0.30;;;15.20;99.90;;;;;;5053035;28;20032;-82
2022/10/08 12:12:49;;;;;;;2.40;0.20;;;15.50;99.90;;;;;;5053401;28;20392;-82
2022/10/08 12:15:23;;;;;;;5.63;0.32;;;15.50;99.90;;;;;;5035163;28;20033;-85
2022/10/08 12:17:58;;;;;;;3.65;0.20;;;15.20;99.90;;;;;;5017554;28;20180;-81
2022/10/08 12:20:26;;;;;;;5.03;0.30;;;15.40;99.90;;;;;;5015398;28;20041;-83
2022/10/08 12:23:06;;;;;;;2.90;0.20;;;15.70;99.90;;;;;;5068809;28;20017;-82
2022/10/08 12:26:03;;;;;;;5.88;0.40;;;15.40;99.90;;;;;;5052853;28;20024;-87
2022/10/08 12:28:34;;;;;;;4.15;0.20;;;15.10;99.90;;;;;;5034433;28;20473;-81
2022/10/08 12:31:01;;;;;;;;;;;15.40;99.90;;;;;;5053498;28;20112;-82
2022/10/08 12:33:29;;;;;;;2.17;0.20;;;15.50;99.90;;;;;;5053680;28;20003;-87
2022/10/08 12:36:36;;;;;;;3.67;0.32;;;15.60;99.90;;;;;;5019282;28;20399;-85
2022/10/08 12:39:15;;;;;;;4.10;0.40;;;15.40;99.90;;;;;;5034074;28;20025;-81
2022/10/08 12:41:59;;;;;;;2.85;0.20;;;15.50;99.90;;;;;;5033565;28;20054;-82
2022/10/08 12:44:43;;;;;;;3.17;0.20;;;15.50;99.90;;;;;;5014978;28;20532;-85
2022/10/08 12:47:27;;;;;;;3.35;0.20;;;15.80;99.90;;;;;;5020023;28;20456;-84
2022/10/08 12:50:21;;;;;;;1.70;0.20;;;15.70;99.90;;;;;;5021638;28;20029;-82
2022/10/08 12:52:48;;;;;;;5.35;0.20;;;16.00;99.90;;;;;;4997826;28;20615;-81
2022/10/08 12:55:18;;;;;;;2.35;0.20;;;16.10;99.90;;;;;;5022944;28;20064;-83
2022/10/08 12:57:47;;;;;;;3.22;0.20;;;15.70;99.90;;;;;;5021756;28;20037;-82
2022/10/08 13:00:21;;;;;;;5.05;0.20;;;15.60;99.90;;;;;;5018849;28;20045;-81
2022/10/08 13:03:01;;;;;;;3.47;0.20;;;15.80;99.90;;;;;;5014621;28;20531;-83
2022/10/08 13:05:37;;;;;;;3.03;0.30;;;16.10;99.90;;;;;;5013717;28;20711;-90
2022/10/08 13:08:28;;;;;;;2.95;0.17;;;16.10;99.90;;;;;;5020791;28;20036;-88
2022/10/08 13:10:54;;;;;;;3.47;0.30;;;15.90;99.90;;;;;;5017801;28;20123;-82
2022/10/08 13:13:37;;;;;;;6.13;0.25;;;16.00;99.90;;;;;;5051691;28;20032;-84
2022/10/08 13:16:08;;;;;;;4.28;0.20;;;15.80;99.90;;;;;;5034457;28;20064;-81